Terminal Aerodrome Forecast
Issued by NWS

Home | Current Version | Previous Version | Text Only | Print | Product List | Glossary On
Versions: 1 2 3 4 5 6 7 8 9 10 11 12 13 14 15
000
FTUS44 KBMX 282300 RRA
TAFEET
TAF
KEET 282342Z 2900/2924 34006KT 5SM -DZ BR OVC004
     FM290500 32003KT 3SM -RA BR OVC004
     FM291200 33003KT 2SM BR OVC004
     FM291700 33005KT P6SM OVC007=

USA.gov is the U.S. government's official web portal to all federal, state and local government web resources and services.